sensor_id;sensor_type;location;lat;lon;timestamp;P1;durP1;ratioP1;P2;durP2;ratioP2
18360;SDS011;9308;48.550;9.108;2023-05-07T00:01:12;4.33;;;3.93;;
18360;SDS011;9308;48.550;9.108;2023-05-07T00:03:57;4.07;;;3.77;;
18360;SDS011;9308;48.550;9.108;2023-05-07T00:06:42;4.23;;;3.87;;
18360;SDS011;9308;48.550;9.108;2023-05-07T00:09:27;4.53;;;3.77;;
18360;SDS011;9308;48.550;9.108;2023-05-07T00:12:13;3.70;;;3.50;;
18360;SDS011;9308;48.550;9.108;2023-05-07T00:14:59;3.87;;;3.63;;
18360;SDS011;9308;48.550;9.108;2023-05-07T00:17:45;3.90;;;3.63;;
18360;SDS011;9308;48.550;9.108;2023-05-07T00:20:30;4.90;;;3.63;;
18360;SDS011;9308;48.550;9.108;2023-05-07T00:23:15;3.80;;;3.50;;
18360;SDS011;9308;48.550;9.108;2023-05-07T00:26:01;4.60;;;4.20;;
18360;SDS011;9308;48.550;9.108;2023-05-07T00:28:46;3.97;;;3.67;;
18360;SDS011;9308;48.550;9.108;2023-05-07T00:31:31;5.23;;;3.77;;
18360;SDS011;9308;48.550;9.108;2023-05-07T00:34:16;4.23;;;3.93;;
18360;SDS011;9308;48.550;9.108;2023-05-07T00:37:02;4.23;;;3.83;;
18360;SDS011;9308;48.550;9.108;2023-05-07T00:39:47;4.23;;;3.93;;
18360;SDS011;9308;48.550;9.108;2023-05-07T00:42:32;4.30;;;4.00;;
18360;SDS011;9308;48.550;9.108;2023-05-07T00:45:17;5.93;;;4.10;;
18360;SDS011;9308;48.550;9.108;2023-05-07T00:48:03;4.40;;;4.10;;
18360;SDS011;9308;48.550;9.108;2023-05-07T00:50:48;4.40;;;3.90;;
18360;SDS011;9308;48.550;9.108;2023-05-07T00:53:34;4.50;;;4.10;;
18360;SDS011;9308;48.550;9.108;2023-05-07T00:56:22;4.20;;;3.80;;
18360;SDS011;9308;48.550;9.108;2023-05-07T00:59:08;4.63;;;3.83;;
18360;SDS011;9308;48.550;9.108;2023-05-07T01:01:54;4.67;;;4.30;;
18360;SDS011;9308;48.550;9.108;2023-05-07T01:04:39;3.93;;;3.63;;
18360;SDS011;9308;48.550;9.108;2023-05-07T01:07:25;4.37;;;3.87;;
18360;SDS011;9308;48.550;9.108;2023-05-07T01:10:11;4.37;;;3.97;;
18360;SDS011;9308;48.550;9.108;2023-05-07T01:12:57;4.03;;;3.73;;
18360;SDS011;9308;48.550;9.108;2023-05-07T01:15:43;4.27;;;3.83;;
18360;SDS011;9308;48.550;9.108;2023-05-07T01:18:29;4.17;;;3.87;;
18360;SDS011;9308;48.550;9.108;2023-05-07T01:21:17;5.67;;;5.17;;
18360;SDS011;9308;48.550;9.108;2023-05-07T01:24:03;4.33;;;3.93;;
18360;SDS011;9308;48.550;9.108;2023-05-07T01:26:49;4.10;;;3.80;;
18360;SDS011;9308;48.550;9.108;2023-05-07T01:29:34;4.07;;;3.77;;
18360;SDS011;9308;48.550;9.108;2023-05-07T01:32:21;4.30;;;3.90;;
18360;SDS011;9308;48.550;9.108;2023-05-07T01:35:18;6.13;;;3.80;;
18360;SDS011;9308;48.550;9.108;2023-05-07T01:38:05;4.10;;;3.70;;
18360;SDS011;9308;48.550;9.108;2023-05-07T01:40:51;5.57;;;4.40;;
18360;SDS011;9308;48.550;9.108;2023-05-07T01:43:38;5.17;;;4.23;;
18360;SDS011;9308;48.550;9.108;2023-05-07T01:46:26;4.60;;;4.17;;
18360;SDS011;9308;48.550;9.108;2023-05-07T01:49:11;4.70;;;4.30;;
18360;SDS011;9308;48.550;9.108;2023-05-07T01:51:57;4.07;;;3.87;;
18360;SDS011;9308;48.550;9.108;2023-05-07T01:54:43;5.27;;;4.17;;
18360;SDS011;9308;48.550;9.108;2023-05-07T01:57:28;4.53;;;3.60;;
18360;SDS011;9308;48.550;9.108;2023-05-07T02:00:13;4.47;;;3.83;;
18360;SDS011;9308;48.550;9.108;2023-05-07T02:02:59;3.90;;;3.63;;
18360;SDS011;9308;48.550;9.108;2023-05-07T02:05:44;4.10;;;3.80;;
18360;SDS011;9308;48.550;9.108;2023-05-07T02:08:29;4.37;;;3.90;;
18360;SDS011;9308;48.550;9.108;2023-05-07T02:11:15;3.60;;;3.30;;
18360;SDS011;9308;48.550;9.108;2023-05-07T02:14:01;5.63;;;3.60;;
18360;SDS011;9308;48.550;9.108;2023-05-07T02:16:46;4.50;;;4.00;;
18360;SDS011;9308;48.550;9.108;2023-05-07T02:19:31;3.80;;;3.50;;
18360;SDS011;9308;48.550;9.108;2023-05-07T02:22:17;3.93;;;3.63;;
18360;SDS011;9308;48.550;9.108;2023-05-07T02:25:02;4.83;;;4.43;;
18360;SDS011;9308;48.550;9.108;2023-05-07T02:27:48;4.40;;;4.10;;
18360;SDS011;9308;48.550;9.108;2023-05-07T02:30:33;3.77;;;3.47;;
18360;SDS011;9308;48.550;9.108;2023-05-07T02:33:18;4.37;;;3.97;;
18360;SDS011;9308;48.550;9.108;2023-05-07T02:36:05;4.63;;;4.20;;
18360;SDS011;9308;48.550;9.108;2023-05-07T02:38:52;4.67;;;4.37;;
18360;SDS011;9308;48.550;9.108;2023-05-07T02:41:37;4.30;;;4.00;;
18360;SDS011;9308;48.550;9.108;2023-05-07T02:44:22;4.30;;;4.00;;
18360;SDS011;9308;48.550;9.108;2023-05-07T02:47:08;4.83;;;4.43;;
18360;SDS011;9308;48.550;9.108;2023-05-07T02:49:54;5.57;;;5.07;;
18360;SDS011;9308;48.550;9.108;2023-05-07T02:52:40;5.20;;;4.63;;
18360;SDS011;9308;48.550;9.108;2023-05-07T02:55:25;4.67;;;4.23;;
18360;SDS011;9308;48.550;9.108;2023-05-07T02:58:10;5.00;;;4.60;;
18360;SDS011;9308;48.550;9.108;2023-05-07T03:00:56;5.10;;;4.40;;
18360;SDS011;9308;48.550;9.108;2023-05-07T03:03:41;7.53;;;5.10;;
18360;SDS011;9308;48.550;9.108;2023-05-07T03:06:26;4.47;;;4.13;;
18360;SDS011;9308;48.550;9.108;2023-05-07T03:09:12;4.77;;;4.37;;
18360;SDS011;9308;48.550;9.108;2023-05-07T03:11:57;4.67;;;4.27;;
18360;SDS011;9308;48.550;9.108;2023-05-07T03:14:42;5.07;;;4.67;;
18360;SDS011;9308;48.550;9.108;2023-05-07T03:17:27;5.53;;;5.13;;
18360;SDS011;9308;48.550;9.108;2023-05-07T03:20:13;4.73;;;4.43;;
18360;SDS011;9308;48.550;9.108;2023-05-07T03:22:58;4.40;;;4.00;;
18360;SDS011;9308;48.550;9.108;2023-05-07T03:25:43;4.90;;;4.53;;
18360;SDS011;9308;48.550;9.108;2023-05-07T03:28:28;4.33;;;4.03;;
18360;SDS011;9308;48.550;9.108;2023-05-07T03:31:14;4.93;;;4.53;;
18360;SDS011;9308;48.550;9.108;2023-05-07T03:33:59;4.97;;;4.57;;
18360;SDS011;9308;48.550;9.108;2023-05-07T03:36:44;5.37;;;4.97;;
18360;SDS011;9308;48.550;9.108;2023-05-07T03:39:30;4.63;;;4.33;;
18360;SDS011;9308;48.550;9.108;2023-05-07T03:42:15;5.80;;;4.60;;
18360;SDS011;9308;48.550;9.108;2023-05-07T03:45:00;4.87;;;4.40;;
18360;SDS011;9308;48.550;9.108;2023-05-07T03:47:46;5.10;;;4.70;;
18360;SDS011;9308;48.550;9.108;2023-05-07T03:50:31;5.00;;;4.60;;
18360;SDS011;9308;48.550;9.108;2023-05-07T03:53:16;5.17;;;4.67;;
18360;SDS011;9308;48.550;9.108;2023-05-07T03:56:01;5.17;;;4.70;;
18360;SDS011;9308;48.550;9.108;2023-05-07T03:58:47;5.17;;;4.77;;
18360;SDS011;9308;48.550;9.108;2023-05-07T04:01:32;4.47;;;4.20;;
18360;SDS011;9308;48.550;9.108;2023-05-07T04:04:17;5.33;;;4.93;;
18360;SDS011;9308;48.550;9.108;2023-05-07T04:07:03;4.97;;;4.67;;
18360;SDS011;9308;48.550;9.108;2023-05-07T04:09:49;5.20;;;4.80;;
18360;SDS011;9308;48.550;9.108;2023-05-07T04:12:34;4.27;;;3.87;;
18360;SDS011;9308;48.550;9.108;2023-05-07T04:15:20;4.57;;;4.17;;
18360;SDS011;9308;48.550;9.108;2023-05-07T04:18:05;4.57;;;4.17;;
18360;SDS011;9308;48.550;9.108;2023-05-07T04:20:50;4.60;;;4.30;;
18360;SDS011;9308;48.550;9.108;2023-05-07T04:23:35;4.90;;;4.50;;
18360;SDS011;9308;48.550;9.108;2023-05-07T04:26:21;6.47;;;5.97;;
18360;SDS011;9308;48.550;9.108;2023-05-07T04:29:06;4.73;;;4.43;;
18360;SDS011;9308;48.550;9.108;2023-05-07T04:31:51;5.93;;;5.47;;
18360;SDS011;9308;48.550;9.108;2023-05-07T04:34:37;5.80;;;5.40;;
18360;SDS011;9308;48.550;9.108;2023-05-07T04:37:22;5.77;;;5.30;;
18360;SDS011;9308;48.550;9.108;2023-05-07T04:40:07;5.73;;;5.17;;
18360;SDS011;9308;48.550;9.108;2023-05-07T04:42:53;7.10;;;6.40;;
18360;SDS011;9308;48.550;9.108;2023-05-07T04:45:38;6.97;;;6.37;;
18360;SDS011;9308;48.550;9.108;2023-05-07T04:48:26;7.00;;;6.40;;
18360;SDS011;9308;48.550;9.108;2023-05-07T04:51:12;7.50;;;6.87;;
18360;SDS011;9308;48.550;9.108;2023-05-07T04:53:57;6.57;;;6.10;;
18360;SDS011;9308;48.550;9.108;2023-05-07T04:56:42;6.53;;;6.03;;
18360;SDS011;9308;48.550;9.108;2023-05-07T04:59:27;5.27;;;4.87;;
18360;SDS011;9308;48.550;9.108;2023-05-07T05:02:13;6.27;;;5.67;;
18360;SDS011;9308;48.550;9.108;2023-05-07T05:04:58;6.80;;;4.33;;
18360;SDS011;9308;48.550;9.108;2023-05-07T05:07:44;5.40;;;4.90;;
18360;SDS011;9308;48.550;9.108;2023-05-07T05:10:29;5.47;;;5.07;;
18360;SDS011;9308;48.550;9.108;2023-05-07T05:13:14;4.33;;;4.03;;
18360;SDS011;9308;48.550;9.108;2023-05-07T05:15:59;4.70;;;4.30;;
18360;SDS011;9308;48.550;9.108;2023-05-07T05:18:45;4.80;;;4.40;;
18360;SDS011;9308;48.550;9.108;2023-05-07T05:21:31;4.83;;;4.43;;
18360;SDS011;9308;48.550;9.108;2023-05-07T05:24:17;4.53;;;4.23;;
18360;SDS011;9308;48.550;9.108;2023-05-07T05:27:02;5.63;;;5.13;;
18360;SDS011;9308;48.550;9.108;2023-05-07T05:29:48;4.80;;;4.47;;
18360;SDS011;9308;48.550;9.108;2023-05-07T05:32:33;5.47;;;5.07;;
18360;SDS011;9308;48.550;9.108;2023-05-07T05:35:18;5.50;;;5.10;;
18360;SDS011;9308;48.550;9.108;2023-05-07T05:38:03;5.27;;;4.87;;
18360;SDS011;9308;48.550;9.108;2023-05-07T05:40:49;4.90;;;4.60;;
18360;SDS011;9308;48.550;9.108;2023-05-07T05:43:34;5.00;;;4.60;;
18360;SDS011;9308;48.550;9.108;2023-05-07T05:46:19;5.67;;;4.97;;
18360;SDS011;9308;48.550;9.108;2023-05-07T05:49:05;5.13;;;4.73;;
18360;SDS011;9308;48.550;9.108;2023-05-07T05:51:50;5.47;;;5.03;;
18360;SDS011;9308;48.550;9.108;2023-05-07T05:54:35;6.30;;;5.00;;
18360;SDS011;9308;48.550;9.108;2023-05-07T05:57:21;6.13;;;5.33;;
18360;SDS011;9308;48.550;9.108;2023-05-07T06:00:06;5.90;;;5.40;;
18360;SDS011;9308;48.550;9.108;2023-05-07T06:02:53;5.97;;;5.47;;
18360;SDS011;9308;48.550;9.108;2023-05-07T06:05:38;5.50;;;5.10;;
18360;SDS011;9308;48.550;9.108;2023-05-07T06:08:23;6.10;;;5.50;;
18360;SDS011;9308;48.550;9.108;2023-05-07T06:11:08;5.27;;;4.87;;
18360;SDS011;9308;48.550;9.108;2023-05-07T06:13:54;5.60;;;5.20;;
18360;SDS011;9308;48.550;9.108;2023-05-07T06:16:39;5.50;;;5.00;;
18360;SDS011;9308;48.550;9.108;2023-05-07T06:19:24;7.00;;;6.40;;
18360;SDS011;9308;48.550;9.108;2023-05-07T06:22:11;6.07;;;5.47;;
18360;SDS011;9308;48.550;9.108;2023-05-07T06:24:56;5.90;;;5.47;;
18360;SDS011;9308;48.550;9.108;2023-05-07T06:27:42;6.17;;;5.67;;
18360;SDS011;9308;48.550;9.108;2023-05-07T06:30:27;5.80;;;5.40;;
18360;SDS011;9308;48.550;9.108;2023-05-07T06:33:12;5.60;;;5.10;;
18360;SDS011;9308;48.550;9.108;2023-05-07T06:35:58;5.60;;;5.10;;
18360;SDS011;9308;48.550;9.108;2023-05-07T06:38:43;5.40;;;4.90;;
18360;SDS011;9308;48.550;9.108;2023-05-07T06:41:29;5.23;;;4.73;;
18360;SDS011;9308;48.550;9.108;2023-05-07T06:44:15;6.20;;;5.70;;
18360;SDS011;9308;48.550;9.108;2023-05-07T06:47:00;6.10;;;5.60;;
18360;SDS011;9308;48.550;9.108;2023-05-07T06:49:45;6.17;;;5.70;;
18360;SDS011;9308;48.550;9.108;2023-05-07T06:52:31;5.93;;;5.43;;
18360;SDS011;9308;48.550;9.108;2023-05-07T06:55:16;5.70;;;5.30;;
18360;SDS011;9308;48.550;9.108;2023-05-07T06:58:01;6.47;;;5.97;;
18360;SDS011;9308;48.550;9.108;2023-05-07T07:00:46;6.10;;;5.60;;
18360;SDS011;9308;48.550;9.108;2023-05-07T07:03:32;7.13;;;6.37;;
18360;SDS011;9308;48.550;9.108;2023-05-07T07:06:17;6.33;;;5.83;;
18360;SDS011;9308;48.550;9.108;2023-05-07T07:09:02;6.20;;;5.70;;
18360;SDS011;9308;48.550;9.108;2023-05-07T07:11:48;5.93;;;5.53;;
18360;SDS011;9308;48.550;9.108;2023-05-07T07:14:33;7.13;;;6.37;;
18360;SDS011;9308;48.550;9.108;2023-05-07T07:17:18;6.47;;;5.97;;
18360;SDS011;9308;48.550;9.108;2023-05-07T07:20:03;6.33;;;5.70;;
18360;SDS011;9308;48.550;9.108;2023-05-07T07:22:49;6.10;;;5.60;;
18360;SDS011;9308;48.550;9.108;2023-05-07T07:25:35;6.10;;;5.60;;
18360;SDS011;9308;48.550;9.108;2023-05-07T07:28:20;6.60;;;5.97;;
18360;SDS011;9308;48.550;9.108;2023-05-07T07:31:06;9.93;;;6.30;;
18360;SDS011;9308;48.550;9.108;2023-05-07T07:33:51;7.40;;;6.70;;
18360;SDS011;9308;48.550;9.108;2023-05-07T07:36:37;5.67;;;5.20;;
18360;SDS011;9308;48.550;9.108;2023-05-07T07:39:22;5.80;;;5.40;;
18360;SDS011;9308;48.550;9.108;2023-05-07T07:42:07;6.17;;;5.77;;
18360;SDS011;9308;48.550;9.108;2023-05-07T07:44:52;4.60;;;4.30;;
18360;SDS011;9308;48.550;9.108;2023-05-07T07:47:38;5.93;;;5.43;;
18360;SDS011;9308;48.550;9.108;2023-05-07T07:50:24;5.50;;;5.17;;
18360;SDS011;9308;48.550;9.108;2023-05-07T07:53:10;8.87;;;5.80;;
18360;SDS011;9308;48.550;9.108;2023-05-07T07:55:55;5.30;;;4.80;;
18360;SDS011;9308;48.550;9.108;2023-05-07T07:58:40;6.10;;;5.60;;
18360;SDS011;9308;48.550;9.108;2023-05-07T08:01:26;5.90;;;4.90;;
18360;SDS011;9308;48.550;9.108;2023-05-07T08:04:11;6.20;;;5.27;;
18360;SDS011;9308;48.550;9.108;2023-05-07T08:06:56;5.07;;;4.77;;
18360;SDS011;9308;48.550;9.108;2023-05-07T08:09:42;5.97;;;5.03;;
18360;SDS011;9308;48.550;9.108;2023-05-07T08:12:27;5.07;;;4.67;;
18360;SDS011;9308;48.550;9.108;2023-05-07T08:15:13;5.20;;;4.80;;
18360;SDS011;9308;48.550;9.108;2023-05-07T08:17:58;4.90;;;4.60;;
18360;SDS011;9308;48.550;9.108;2023-05-07T08:20:45;5.00;;;4.60;;
18360;SDS011;9308;48.550;9.108;2023-05-07T08:23:30;4.60;;;4.20;;
18360;SDS011;9308;48.550;9.108;2023-05-07T08:26:15;5.33;;;4.97;;
18360;SDS011;9308;48.550;9.108;2023-05-07T08:29:00;5.60;;;5.20;;
18360;SDS011;9308;48.550;9.108;2023-05-07T08:31:46;4.90;;;4.50;;
18360;SDS011;9308;48.550;9.108;2023-05-07T08:34:31;5.10;;;4.70;;
18360;SDS011;9308;48.550;9.108;2023-05-07T08:37:16;4.67;;;4.10;;
18360;SDS011;9308;48.550;9.108;2023-05-07T08:40:02;5.07;;;4.77;;
18360;SDS011;9308;48.550;9.108;2023-05-07T08:42:48;6.00;;;4.83;;
18360;SDS011;9308;48.550;9.108;2023-05-07T08:45:34;6.10;;;4.87;;
18360;SDS011;9308;48.550;9.108;2023-05-07T08:48:21;4.57;;;4.27;;
18360;SDS011;9308;48.550;9.108;2023-05-07T08:51:13;4.00;;;3.70;;
18360;SDS011;9308;48.550;9.108;2023-05-07T08:54:01;4.67;;;4.30;;
18360;SDS011;9308;48.550;9.108;2023-05-07T08:56:47;5.57;;;4.30;;
18360;SDS011;9308;48.550;9.108;2023-05-07T08:59:33;4.40;;;4.10;;
18360;SDS011;9308;48.550;9.108;2023-05-07T09:02:18;5.10;;;4.13;;
18360;SDS011;9308;48.550;9.108;2023-05-07T09:05:03;4.17;;;3.87;;
18360;SDS011;9308;48.550;9.108;2023-05-07T09:07:49;4.57;;;4.27;;
18360;SDS011;9308;48.550;9.108;2023-05-07T09:10:35;4.70;;;4.40;;
18360;SDS011;9308;48.550;9.108;2023-05-07T09:13:20;4.30;;;4.00;;
18360;SDS011;9308;48.550;9.108;2023-05-07T09:16:09;4.23;;;3.90;;
18360;SDS011;9308;48.550;9.108;2023-05-07T09:18:57;4.40;;;4.00;;
18360;SDS011;9308;48.550;9.108;2023-05-07T09:21:43;4.37;;;4.07;;
18360;SDS011;9308;48.550;9.108;2023-05-07T09:24:29;4.23;;;3.83;;
18360;SDS011;9308;48.550;9.108;2023-05-07T09:27:18;3.90;;;3.70;;
18360;SDS011;9308;48.550;9.108;2023-05-07T09:30:04;4.43;;;3.97;;
18360;SDS011;9308;48.550;9.108;2023-05-07T09:32:51;4.27;;;3.97;;
18360;SDS011;9308;48.550;9.108;2023-05-07T09:35:37;4.20;;;3.80;;
18360;SDS011;9308;48.550;9.108;2023-05-07T09:38:22;5.00;;;4.13;;
18360;SDS011;9308;48.550;9.108;2023-05-07T09:41:09;4.03;;;3.73;;
18360;SDS011;9308;48.550;9.108;2023-05-07T09:43:56;4.33;;;4.00;;
18360;SDS011;9308;48.550;9.108;2023-05-07T09:46:44;4.93;;;4.37;;
18360;SDS011;9308;48.550;9.108;2023-05-07T09:49:33;5.20;;;3.60;;
18360;SDS011;9308;48.550;9.108;2023-05-07T09:52:20;4.40;;;4.00;;
18360;SDS011;9308;48.550;9.108;2023-05-07T09:55:06;4.40;;;4.10;;
18360;SDS011;9308;48.550;9.108;2023-05-07T09:57:52;3.60;;;3.40;;
18360;SDS011;9308;48.550;9.108;2023-05-07T10:00:39;3.73;;;3.37;;
18360;SDS011;9308;48.550;9.108;2023-05-07T10:03:25;4.00;;;3.70;;
18360;SDS011;9308;48.550;9.108;2023-05-07T10:06:13;4.47;;;4.07;;
18360;SDS011;9308;48.550;9.108;2023-05-07T10:08:59;3.97;;;3.77;;
18360;SDS011;9308;48.550;9.108;2023-05-07T10:11:45;3.73;;;3.53;;
18360;SDS011;9308;48.550;9.108;2023-05-07T10:14:31;3.43;;;3.23;;
18360;SDS011;9308;48.550;9.108;2023-05-07T10:17:17;3.43;;;3.17;;
18360;SDS011;9308;48.550;9.108;2023-05-07T10:20:03;3.57;;;3.27;;
18360;SDS011;9308;48.550;9.108;2023-05-07T10:22:49;3.00;;;2.80;;
18360;SDS011;9308;48.550;9.108;2023-05-07T10:25:36;3.90;;;3.70;;
18360;SDS011;9308;48.550;9.108;2023-05-07T10:28:21;3.00;;;2.80;;
18360;SDS011;9308;48.550;9.108;2023-05-07T10:34:44;3.90;;;3.57;;
18360;SDS011;9308;48.550;9.108;2023-05-07T10:37:33;3.63;;;3.43;;
18360;SDS011;9308;48.550;9.108;2023-05-07T10:40:20;3.80;;;3.47;;
18360;SDS011;9308;48.550;9.108;2023-05-07T10:43:06;3.60;;;3.30;;
18360;SDS011;9308;48.550;9.108;2023-05-07T10:58:22;3.50;;;3.20;;
18360;SDS011;9308;48.550;9.108;2023-05-07T11:01:07;3.43;;;3.20;;
18360;SDS011;9308;48.550;9.108;2023-05-07T11:15:33;2.80;;;2.70;;
18360;SDS011;9308;48.550;9.108;2023-05-07T11:18:20;3.07;;;2.87;;
18360;SDS011;9308;48.550;9.108;2023-05-07T11:21:06;3.20;;;3.00;;
18360;SDS011;9308;48.550;9.108;2023-05-07T11:29:29;3.00;;;2.80;;
18360;SDS011;9308;48.550;9.108;2023-05-07T11:32:15;2.90;;;2.70;;
18360;SDS011;9308;48.550;9.108;2023-05-07T11:35:07;2.93;;;2.67;;
18360;SDS011;9308;48.550;9.108;2023-05-07T11:37:57;3.80;;;2.57;;
18360;SDS011;9308;48.550;9.108;2023-05-07T11:40:50;3.43;;;3.13;;
18360;SDS011;9308;48.550;9.108;2023-05-07T11:43:53;3.50;;;3.20;;
18360;SDS011;9308;48.550;9.108;2023-05-07T11:46:42;5.57;;;2.83;;
18360;SDS011;9308;48.550;9.108;2023-05-07T11:49:28;3.20;;;2.90;;
18360;SDS011;9308;48.550;9.108;2023-05-07T11:52:14;2.93;;;2.77;;
18360;SDS011;9308;48.550;9.108;2023-05-07T11:55:01;2.93;;;2.77;;
18360;SDS011;9308;48.550;9.108;2023-05-07T11:57:46;3.97;;;3.67;;
18360;SDS011;9308;48.550;9.108;2023-05-07T12:00:32;3.30;;;3.00;;
18360;SDS011;9308;48.550;9.108;2023-05-07T12:03:17;5.63;;;3.10;;
18360;SDS011;9308;48.550;9.108;2023-05-07T12:06:06;3.57;;;3.37;;
18360;SDS011;9308;48.550;9.108;2023-05-07T12:08:51;3.47;;;3.17;;
18360;SDS011;9308;48.550;9.108;2023-05-07T12:11:38;3.70;;;3.40;;
18360;SDS011;9308;48.550;9.108;2023-05-07T12:14:27;3.10;;;2.90;;
18360;SDS011;9308;48.550;9.108;2023-05-07T12:17:14;3.23;;;2.90;;
18360;SDS011;9308;48.550;9.108;2023-05-07T12:20:00;3.70;;;2.90;;
18360;SDS011;9308;48.550;9.108;2023-05-07T12:22:45;3.20;;;3.00;;
18360;SDS011;9308;48.550;9.108;2023-05-07T12:25:36;3.10;;;2.80;;
18360;SDS011;9308;48.550;9.108;2023-05-07T12:28:21;3.07;;;2.87;;
18360;SDS011;9308;48.550;9.108;2023-05-07T12:31:07;3.10;;;2.90;;
18360;SDS011;9308;48.550;9.108;2023-05-07T12:33:52;3.77;;;3.10;;
18360;SDS011;9308;48.550;9.108;2023-05-07T12:36:38;2.80;;;2.60;;
18360;SDS011;9308;48.550;9.108;2023-05-07T12:39:24;2.80;;;2.60;;
18360;SDS011;9308;48.550;9.108;2023-05-07T12:42:10;3.83;;;3.53;;
18360;SDS011;9308;48.550;9.108;2023-05-07T12:45:15;3.00;;;2.70;;
18360;SDS011;9308;48.550;9.108;2023-05-07T12:48:01;2.77;;;2.57;;
18360;SDS011;9308;48.550;9.108;2023-05-07T12:50:54;3.23;;;2.93;;
18360;SDS011;9308;48.550;9.108;2023-05-07T12:53:40;3.63;;;3.33;;
18360;SDS011;9308;48.550;9.108;2023-05-07T12:56:27;2.83;;;2.63;;
18360;SDS011;9308;48.550;9.108;2023-05-07T12:59:16;2.93;;;2.73;;
18360;SDS011;9308;48.550;9.108;2023-05-07T13:02:01;2.83;;;2.63;;
18360;SDS011;9308;48.550;9.108;2023-05-07T13:04:46;3.07;;;2.70;;
18360;SDS011;9308;48.550;9.108;2023-05-07T13:07:32;2.40;;;2.20;;
18360;SDS011;9308;48.550;9.108;2023-05-07T13:10:18;3.30;;;2.27;;
18360;SDS011;9308;48.550;9.108;2023-05-07T13:13:03;2.70;;;2.50;;
18360;SDS011;9308;48.550;9.108;2023-05-07T13:15:48;3.83;;;3.00;;
18360;SDS011;9308;48.550;9.108;2023-05-07T13:18:34;3.97;;;3.33;;
18360;SDS011;9308;48.550;9.108;2023-05-07T13:21:19;4.70;;;3.90;;
18360;SDS011;9308;48.550;9.108;2023-05-07T13:24:05;4.90;;;3.90;;
18360;SDS011;9308;48.550;9.108;2023-05-07T13:26:50;5.90;;;5.30;;
18360;SDS011;9308;48.550;9.108;2023-05-07T13:29:36;8.40;;;4.87;;
18360;SDS011;9308;48.550;9.108;2023-05-07T13:32:21;5.63;;;5.13;;
18360;SDS011;9308;48.550;9.108;2023-05-07T13:35:07;4.87;;;4.47;;
18360;SDS011;9308;48.550;9.108;2023-05-07T13:37:52;6.33;;;5.20;;
18360;SDS011;9308;48.550;9.108;2023-05-07T13:40:39;7.30;;;4.93;;
18360;SDS011;9308;48.550;9.108;2023-05-07T13:43:24;7.00;;;5.70;;
18360;SDS011;9308;48.550;9.108;2023-05-07T13:46:10;7.43;;;5.47;;
18360;SDS011;9308;48.550;9.108;2023-05-07T13:48:55;5.73;;;5.20;;
18360;SDS011;9308;48.550;9.108;2023-05-07T13:51:41;6.00;;;5.10;;
18360;SDS011;9308;48.550;9.108;2023-05-07T13:54:26;7.70;;;6.87;;
18360;SDS011;9308;48.550;9.108;2023-05-07T13:57:11;7.13;;;6.20;;
18360;SDS011;9308;48.550;9.108;2023-05-07T13:59:56;6.33;;;5.73;;
18360;SDS011;9308;48.550;9.108;2023-05-07T14:02:42;6.20;;;5.70;;
18360;SDS011;9308;48.550;9.108;2023-05-07T14:05:27;5.40;;;4.90;;
18360;SDS011;9308;48.550;9.108;2023-05-07T14:08:12;6.03;;;5.30;;
18360;SDS011;9308;48.550;9.108;2023-05-07T14:10:58;7.87;;;4.93;;
18360;SDS011;9308;48.550;9.108;2023-05-07T14:13:44;6.60;;;5.67;;
18360;SDS011;9308;48.550;9.108;2023-05-07T14:16:30;9.33;;;5.70;;
18360;SDS011;9308;48.550;9.108;2023-05-07T14:19:15;8.83;;;6.20;;
18360;SDS011;9308;48.550;9.108;2023-05-07T14:22:00;6.53;;;5.93;;
18360;SDS011;9308;48.550;9.108;2023-05-07T14:24:46;6.97;;;5.80;;
18360;SDS011;9308;48.550;9.108;2023-05-07T14:27:31;7.90;;;5.63;;
18360;SDS011;9308;48.550;9.108;2023-05-07T14:30:16;6.30;;;4.83;;
18360;SDS011;9308;48.550;9.108;2023-05-07T14:33:01;4.63;;;4.23;;
18360;SDS011;9308;48.550;9.108;2023-05-07T14:35:47;4.90;;;4.40;;
18360;SDS011;9308;48.550;9.108;2023-05-07T14:38:34;5.57;;;4.20;;
18360;SDS011;9308;48.550;9.108;2023-05-07T14:41:19;4.97;;;4.47;;
18360;SDS011;9308;48.550;9.108;2023-05-07T14:44:06;4.83;;;4.43;;
18360;SDS011;9308;48.550;9.108;2023-05-07T14:46:51;4.87;;;4.40;;
18360;SDS011;9308;48.550;9.108;2023-05-07T14:49:37;5.00;;;4.60;;
18360;SDS011;9308;48.550;9.108;2023-05-07T14:52:23;5.57;;;5.07;;
18360;SDS011;9308;48.550;9.108;2023-05-07T14:55:08;6.60;;;4.90;;
18360;SDS011;9308;48.550;9.108;2023-05-07T14:57:53;4.37;;;3.97;;
18360;SDS011;9308;48.550;9.108;2023-05-07T15:00:39;4.10;;;3.73;;
18360;SDS011;9308;48.550;9.108;2023-05-07T15:03:24;4.17;;;3.67;;
18360;SDS011;9308;48.550;9.108;2023-05-07T15:06:09;4.80;;;4.40;;
18360;SDS011;9308;48.550;9.108;2023-05-07T15:08:55;5.00;;;4.60;;
18360;SDS011;9308;48.550;9.108;2023-05-07T15:11:40;5.53;;;5.03;;
18360;SDS011;9308;48.550;9.108;2023-05-07T15:14:26;5.50;;;5.10;;
18360;SDS011;9308;48.550;9.108;2023-05-07T15:17:11;7.10;;;5.70;;
18360;SDS011;9308;48.550;9.108;2023-05-07T15:19:56;5.27;;;4.80;;
18360;SDS011;9308;48.550;9.108;2023-05-07T15:22:41;7.30;;;5.70;;
18360;SDS011;9308;48.550;9.108;2023-05-07T15:25:27;5.93;;;5.43;;
18360;SDS011;9308;48.550;9.108;2023-05-07T15:28:12;6.57;;;4.83;;
18360;SDS011;9308;48.550;9.108;2023-05-07T15:30:57;5.43;;;4.90;;
18360;SDS011;9308;48.550;9.108;2023-05-07T15:33:42;6.03;;;5.30;;
18360;SDS011;9308;48.550;9.108;2023-05-07T15:36:29;7.47;;;5.00;;
18360;SDS011;9308;48.550;9.108;2023-05-07T15:39:15;7.57;;;6.87;;
18360;SDS011;9308;48.550;9.108;2023-05-07T15:42:01;6.17;;;5.57;;
18360;SDS011;9308;48.550;9.108;2023-05-07T15:44:46;6.07;;;5.57;;
18360;SDS011;9308;48.550;9.108;2023-05-07T15:47:32;6.73;;;5.40;;
18360;SDS011;9308;48.550;9.108;2023-05-07T15:50:19;5.87;;;5.23;;
18360;SDS011;9308;48.550;9.108;2023-05-07T15:53:05;6.33;;;5.73;;
18360;SDS011;9308;48.550;9.108;2023-05-07T15:55:50;6.27;;;5.50;;
18360;SDS011;9308;48.550;9.108;2023-05-07T15:58:35;6.83;;;5.53;;
18360;SDS011;9308;48.550;9.108;2023-05-07T16:01:21;6.47;;;5.87;;
18360;SDS011;9308;48.550;9.108;2023-05-07T16:04:06;7.60;;;5.80;;
18360;SDS011;9308;48.550;9.108;2023-05-07T16:06:53;6.23;;;5.80;;
18360;SDS011;9308;48.550;9.108;2023-05-07T16:09:38;5.80;;;5.30;;
18360;SDS011;9308;48.550;9.108;2023-05-07T16:12:23;6.23;;;5.73;;
18360;SDS011;9308;48.550;9.108;2023-05-07T16:15:09;5.90;;;5.33;;
18360;SDS011;9308;48.550;9.108;2023-05-07T16:17:54;5.67;;;5.20;;
18360;SDS011;9308;48.550;9.108;2023-05-07T16:20:41;6.50;;;5.90;;
18360;SDS011;9308;48.550;9.108;2023-05-07T16:23:27;7.10;;;5.60;;
18360;SDS011;9308;48.550;9.108;2023-05-07T16:26:13;6.37;;;5.70;;
18360;SDS011;9308;48.550;9.108;2023-05-07T16:28:59;8.77;;;5.90;;
18360;SDS011;9308;48.550;9.108;2023-05-07T16:31:45;7.17;;;6.57;;
18360;SDS011;9308;48.550;9.108;2023-05-07T16:34:30;7.57;;;6.57;;
18360;SDS011;9308;48.550;9.108;2023-05-07T16:37:16;7.27;;;6.57;;
18360;SDS011;9308;48.550;9.108;2023-05-07T16:40:01;6.30;;;5.80;;
18360;SDS011;9308;48.550;9.108;2023-05-07T16:42:51;6.67;;;6.03;;
18360;SDS011;9308;48.550;9.108;2023-05-07T16:45:36;5.97;;;5.37;;
18360;SDS011;9308;48.550;9.108;2023-05-07T16:48:21;6.40;;;5.70;;
18360;SDS011;9308;48.550;9.108;2023-05-07T16:51:07;7.57;;;6.83;;
18360;SDS011;9308;48.550;9.108;2023-05-07T16:53:53;7.07;;;6.40;;
18360;SDS011;9308;48.550;9.108;2023-05-07T16:56:38;9.43;;;6.80;;
18360;SDS011;9308;48.550;9.108;2023-05-07T16:59:24;7.37;;;6.67;;
18360;SDS011;9308;48.550;9.108;2023-05-07T17:02:09;6.07;;;5.57;;
18360;SDS011;9308;48.550;9.108;2023-05-07T17:04:54;6.57;;;5.80;;
18360;SDS011;9308;48.550;9.108;2023-05-07T17:07:39;6.30;;;5.70;;
18360;SDS011;9308;48.550;9.108;2023-05-07T17:10:25;6.10;;;5.50;;
18360;SDS011;9308;48.550;9.108;2023-05-07T17:13:11;6.50;;;5.90;;
18360;SDS011;9308;48.550;9.108;2023-05-07T17:15:56;6.23;;;5.83;;
18360;SDS011;9308;48.550;9.108;2023-05-07T17:18:42;6.90;;;6.30;;
18360;SDS011;9308;48.550;9.108;2023-05-07T17:21:27;6.80;;;5.40;;
18360;SDS011;9308;48.550;9.108;2023-05-07T17:24:13;6.23;;;5.70;;
18360;SDS011;9308;48.550;9.108;2023-05-07T17:26:54;5.67;;;5.10;;